Terminal Aerodrome Forecast
Issued by NWS

Home | Current Version | Previous Version | Text Only | Print | Product List | Glossary On
Versions: 1 2 3 4 5 6 7 8 9 10 11 12 13 14 15 16 17 18 19 20 21 22 23 24 25 26 27 28 29 30 31 32
000
FTUS41 KBTV 242320
TAFPBG
TAF
KPBG 242320Z 2500/2524 15013KT P6SM -RA SCT004 BKN025 WS020/19035KT
      TEMPO 2500/2503 4SM -RA BR BKN004
     FM250400 20012G25KT 6SM -SHRA BR BKN025 OVC035 WS020/19045KT
     FM251100 23014G30KT 3SM RA BR SCT025 BKN035
     FM251300 22025G35KT P6SM VCSH BKN035 OVC050=

USA.gov is the U.S. government's official web portal to all federal, state and local government web resources and services.